Mc Allister Sisters — WAE7159 — position and weather

sailwx.info

Track history (hours):
 
Tides and Currents Weather Stations Pressure Air Temp Water Temp Dewpoint Dewpoint Depression Visibility Wind Speed Wind Dir Waves Ship Positions

Mc Allister Sisters

Owner: MC ALLISTER BROS INC, NEW YORK, NY. More information available from US FCC via Universal Licensing System and Coast Guard Vessel Documentation Center.

Last reported at 2017-Oct-09 09:41 UTC. Time now 2017-Oct-19 08:57 UTC.
Position N 25°27' W 079°57'.
Warning: this ship's position is 9 days out of date.

Length 30 m; draft 4.8 m.

Type: Tug. MMSI: 366966210.

Date/timePositionNaut miles runAvg speedWind from/ knotsBaromVisibWave heightAir tempDewpointWater temp
2017-Oct-09 09:41N 25°27' W 079°57'1 4.2
2017-Oct-09 09:27N 25°28' W 079°57'2 4.5
2017-Oct-09 08:57N 25°30' W 079°58'2 4.7
2017-Oct-09 08:30N 25°32' W 079°59'2 4.7
2017-Oct-09 08:01N 25°35' W 079°59'3 5.0
2017-Oct-09 07:30N 25°37' W 080°00'2 5.0
2017-Oct-09 07:00N 25°39' W 080°01'2 5.0
2017-Oct-09 06:30N 25°42' W 080°02'2 4.9
2017-Oct-09 06:01N 25°44' W 080°02'2 4.8
2017-Oct-09 05:30N 25°46' W 080°03'2 4.9
2017-Oct-09 05:00N 25°49' W 080°03'2 4.8
2017-Oct-09 04:30N 25°51' W 080°03'3 5.4
2017-Oct-09 04:00N 25°54' W 080°03'3 5.6
2017-Oct-09 03:30N 25°57' W 080°03'3 5.5
2017-Oct-09 03:00N 25°60' W 080°03'3 5.6
2017-Oct-09 02:30N 26°02' W 080°03'4 5.8
2017-Oct-09 01:53N 26°06' W 080°03'2 5.9
2017-Oct-09 01:29N 26°08' W 080°03'14 5.7
2017-Oct-08 23:06N 26°22' W 080°02'0 5.5
2017-Oct-08 23:00N 26°22' W 080°02'3 5.5
2017-Oct-08 22:30N 26°25' W 080°01'3 5.5
2017-Oct-08 22:00N 26°28' W 080°01'3 5.6
2017-Oct-08 21:29N 26°31' W 080°00'19 5.6
2017-Oct-08 18:03N 26°50' W 079°59'1 5.0
2017-Oct-08 17:53N 26°51' W 079°59'2 4.9
2017-Oct-08 17:31N 26°52' W 079°59'2 4.9
2017-Oct-08 17:01N 26°55' W 079°60'3 5.4
2017-Oct-08 16:31N 26°57' W 080°00'3 5.6
2017-Oct-08 16:00N 27°00' W 080°00'3 5.3
2017-Oct-08 15:30N 27°03' W 080°00'  
2017-Oct-02 13:43N 39°11' W 075°16'2 7.5
2017-Oct-02 13:30N 39°13' W 075°17'4 7.0
2017-Oct-02 12:59N 39°15' W 075°20'3 6.5
2017-Oct-02 12:30N 39°18' W 075°23'3 5.9
2017-Oct-02 12:00N 39°20' W 075°25'3 5.7
2017-Oct-02 11:30N 39°22' W 075°28'3 5.8
2017-Oct-02 11:00N 39°24' W 075°30'3 5.1
2017-Oct-02 10:31N 39°26' W 075°32'3 5.5
2017-Oct-02 10:00N 39°29' W 075°34'2 5.0
2017-Oct-02 09:30N 39°31' W 075°33'3 5.4
2017-Oct-02 09:00N 39°34' W 075°33'3 5.8
2017-Oct-02 08:30N 39°36' W 075°34'3 6.1
2017-Oct-02 08:00N 39°39' W 075°33'3 6.5
2017-Oct-02 07:30N 39°42' W 075°31'4 7.1
2017-Oct-02 07:00N 39°45' W 075°29'4 7.1
2017-Oct-02 06:30N 39°48' W 075°26'4 7.2
2017-Oct-02 06:00N 39°50' W 075°22'2 3.3
2017-Oct-02 05:30N 39°51' W 075°20'0 0.0
2017-Oct-02 05:00N 39°51' W 075°20'0 0.0
2017-Oct-02 04:31N 39°51' W 075°20'0 0.0
2017-Oct-02 04:00N 39°51' W 075°20'0 0.0
2017-Oct-02 03:30N 39°51' W 075°20'0 0.0
2017-Oct-02 03:00N 39°51' W 075°20'0 0.0
2017-Oct-02 02:31N 39°51' W 075°20'0 0.0
2017-Oct-02 02:00N 39°51' W 075°20'0 0.0
2017-Oct-02 01:31N 39°51' W 075°20'0 0.0
2017-Oct-02 01:01N 39°51' W 075°20'0 0.0
2017-Oct-02 00:31N 39°51' W 075°20'0 0.0
2017-Oct-02 00:00N 39°51' W 075°20'0 0.0
2017-Oct-01 23:31N 39°51' W 075°20'0 0.2
2017-Oct-01 23:01N 39°51' W 075°20'0 0.1
2017-Oct-01 22:30N 39°51' W 075°21'0 0.1
2017-Oct-01 22:00N 39°51' W 075°20'0 0.0
2017-Oct-01 21:30N 39°51' W 075°20'0 0.0
2017-Oct-01 21:00N 39°51' W 075°20'0 0.0
2017-Oct-01 20:30N 39°51' W 075°20'0 0.0
2017-Oct-01 20:00N 39°51' W 075°20'0 0.0
2017-Oct-01 19:30N 39°51' W 075°20'0 0.0
2017-Oct-01 19:00N 39°51' W 075°20'0 0.0
2017-Oct-01 18:30N 39°51' W 075°20'0 0.0
2017-Oct-01 18:00N 39°51' W 075°20'0 0.2
2017-Oct-01 17:30N 39°51' W 075°20'0 0.0
2017-Oct-01 17:01N 39°51' W 075°20'0 0.2
2017-Oct-01 16:30N 39°51' W 075°20'4 8.9
2017-Oct-01 16:01N 39°51' W 075°14'3 6.2
2017-Oct-01 15:30N 39°54' W 075°12'0 0.0
2017-Oct-01 15:00N 39°54' W 075°12'0 0.0
2017-Oct-01 14:30N 39°54' W 075°12'0 0.0
2017-Oct-01 14:00N 39°54' W 075°12'0 0.0
2017-Oct-01 13:31N 39°54' W 075°12'0 0.0
2017-Oct-01 13:00N 39°54' W 075°12'0 0.0
2017-Oct-01 12:30N 39°54' W 075°12'0 0.0
2017-Oct-01 12:00N 39°54' W 075°12'0 0.0
2017-Oct-01 11:30N 39°54' W 075°12'0 0.0
2017-Oct-01 11:00N 39°54' W 075°12'0 0.0
2017-Oct-01 10:30N 39°54' W 075°12'0 0.0
2017-Oct-01 10:00N 39°54' W 075°12'0 0.0
2017-Oct-01 09:30N 39°54' W 075°12'0 0.0
2017-Oct-01 09:00N 39°54' W 075°12'0 0.0
2017-Oct-01 08:30N 39°54' W 075°12'0 0.0
2017-Oct-01 08:00N 39°54' W 075°12'0 0.0
2017-Oct-01 07:30N 39°54' W 075°12'0 0.0
2017-Oct-01 07:00N 39°54' W 075°12'0 0.0
2017-Oct-01 06:30N 39°54' W 075°12'0 0.0
2017-Oct-01 06:00N 39°54' W 075°12'0 0.0
2017-Oct-01 05:30N 39°54' W 075°12'0 0.0
2017-Oct-01 05:00N 39°54' W 075°12'0 0.0
2017-Oct-01 04:30N 39°54' W 075°12'0 0.0
2017-Oct-01 04:00N 39°54' W 075°12'0 0.0
2017-Oct-01 03:30N 39°54' W 075°12'0 0.0
2017-Oct-01 03:00N 39°54' W 075°12'0 0.0
2017-Sep-30 02:00N 39°54' W 075°12'0 0.0
2017-Sep-30 01:30N 39°54' W 075°12'0 0.0
2017-Sep-30 01:00N 39°54' W 075°12'0 0.0
2017-Sep-30 00:30N 39°54' W 075°12'0 0.0
2017-Sep-30 00:00N 39°54' W 075°12'0 0.0
2017-Sep-29 23:30N 39°54' W 075°12'0 0.0
2017-Sep-29 23:00N 39°54' W 075°12'0 0.0
2017-Sep-29 22:30N 39°54' W 075°12'0 0.0
2017-Sep-29 22:01N 39°54' W 075°12'0 0.0
2017-Sep-29 21:30N 39°54' W 075°12'0 0.0
2017-Sep-29 21:00N 39°54' W 075°12'0 0.0
2017-Sep-29 20:30N 39°54' W 075°12'0 0.0
2017-Sep-29 20:00N 39°54' W 075°12'0 0.0
2017-Sep-29 19:30N 39°54' W 075°12'0 0.6
2017-Sep-29 19:00N 39°54' W 075°12'0 0.0
2017-Sep-29 18:30N 39°54' W 075°12'0 0.0
2017-Sep-29 18:01N 39°54' W 075°12'0 0.0
2017-Sep-29 17:30N 39°54' W 075°12'0 0.0
2017-Sep-29 17:00N 39°54' W 075°12'0 0.0
2017-Sep-29 16:30N 39°54' W 075°12'0 0.0
2017-Sep-29 16:00N 39°54' W 075°12'0 0.0
2017-Sep-29 15:30N 39°54' W 075°12'0 0.1
2017-Sep-29 15:00N 39°54' W 075°12'0 0.0
2017-Sep-29 14:30N 39°54' W 075°12'0 0.0
2017-Sep-29 14:01N 39°54' W 075°12'1 1.2
2017-Sep-29 13:30N 39°54' W 075°12'4 8.0
2017-Sep-29 13:00N 39°51' W 075°16'3 6.6
2017-Sep-29 12:30N 39°51' W 075°20'1 1.8
2017-Sep-29 12:00N 39°50' W 075°21'5 9.9
2017-Sep-29 11:31N 39°48' W 075°26'510.0
2017-Sep-29 11:00N 39°43' W 075°30'510.1
2017-Sep-29 10:30N 39°39' W 075°33'4 8.8
2017-Sep-29 10:01N 39°35' W 075°33'  
Track history (hours):
 
Tides and Currents Weather Stations Pressure Air Temp Water Temp Dewpoint Dewpoint Depression Visibility Wind Speed Wind Dir Waves Ship Positions

Mc Allister Sisters

Owner: MC ALLISTER BROS INC, NEW YORK, NY. More information available from US FCC via Universal Licensing System and Coast Guard Vessel Documentation Center.

Last reported at 2017-Oct-09 09:41 UTC. Time now 2017-Oct-19 08:57 UTC.
Position N 25°27' W 079°57'.
Warning: this ship's position is 9 days out of date.

Length 30 m; draft 4.8 m.

Type: Tug. MMSI: 366966210.

Date/timePositionNaut miles runAvg speedWind from/ knotsBaromVisibWave heightAir tempDewpointWater temp
2017-Oct-09 09:41N 25°27' W 079°57'1 4.2
2017-Oct-09 09:27N 25°28' W 079°57'2 4.5
2017-Oct-09 08:57N 25°30' W 079°58'2 4.7
2017-Oct-09 08:30N 25°32' W 079°59'2 4.7
2017-Oct-09 08:01N 25°35' W 079°59'3 5.0
2017-Oct-09 07:30N 25°37' W 080°00'2 5.0
2017-Oct-09 07:00N 25°39' W 080°01'2 5.0
2017-Oct-09 06:30N 25°42' W 080°02'2 4.9
2017-Oct-09 06:01N 25°44' W 080°02'2 4.8
2017-Oct-09 05:30N 25°46' W 080°03'2 4.9
2017-Oct-09 05:00N 25°49' W 080°03'2 4.8
2017-Oct-09 04:30N 25°51' W 080°03'3 5.4
2017-Oct-09 04:00N 25°54' W 080°03'3 5.6
2017-Oct-09 03:30N 25°57' W 080°03'3 5.5
2017-Oct-09 03:00N 25°60' W 080°03'3 5.6
2017-Oct-09 02:30N 26°02' W 080°03'4 5.8
2017-Oct-09 01:53N 26°06' W 080°03'2 5.9
2017-Oct-09 01:29N 26°08' W 080°03'14 5.7
2017-Oct-08 23:06N 26°22' W 080°02'0 5.5
2017-Oct-08 23:00N 26°22' W 080°02'3 5.5
2017-Oct-08 22:30N 26°25' W 080°01'3 5.5
2017-Oct-08 22:00N 26°28' W 080°01'3 5.6
2017-Oct-08 21:29N 26°31' W 080°00'19 5.6
2017-Oct-08 18:03N 26°50' W 079°59'1 5.0
2017-Oct-08 17:53N 26°51' W 079°59'2 4.9
2017-Oct-08 17:31N 26°52' W 079°59'2 4.9
2017-Oct-08 17:01N 26°55' W 079°60'3 5.4
2017-Oct-08 16:31N 26°57' W 080°00'3 5.6
2017-Oct-08 16:00N 27°00' W 080°00'3 5.3
2017-Oct-08 15:30N 27°03' W 080°00'  
2017-Oct-02 13:43N 39°11' W 075°16'2 7.5
2017-Oct-02 13:30N 39°13' W 075°17'4 7.0
2017-Oct-02 12:59N 39°15' W 075°20'3 6.5
2017-Oct-02 12:30N 39°18' W 075°23'3 5.9
2017-Oct-02 12:00N 39°20' W 075°25'3 5.7
2017-Oct-02 11:30N 39°22' W 075°28'3 5.8
2017-Oct-02 11:00N 39°24' W 075°30'3 5.1
2017-Oct-02 10:31N 39°26' W 075°32'3 5.5
2017-Oct-02 10:00N 39°29' W 075°34'2 5.0
2017-Oct-02 09:30N 39°31' W 075°33'3 5.4
2017-Oct-02 09:00N 39°34' W 075°33'3 5.8
2017-Oct-02 08:30N 39°36' W 075°34'3 6.1
2017-Oct-02 08:00N 39°39' W 075°33'3 6.5
2017-Oct-02 07:30N 39°42' W 075°31'4 7.1
2017-Oct-02 07:00N 39°45' W 075°29'4 7.1
2017-Oct-02 06:30N 39°48' W 075°26'4 7.2
2017-Oct-02 06:00N 39°50' W 075°22'2 3.3
2017-Oct-02 05:30N 39°51' W 075°20'0 0.0
2017-Oct-02 05:00N 39°51' W 075°20'0 0.0
2017-Oct-02 04:31N 39°51' W 075°20'0 0.0
2017-Oct-02 04:00N 39°51' W 075°20'0 0.0
2017-Oct-02 03:30N 39°51' W 075°20'0 0.0
2017-Oct-02 03:00N 39°51' W 075°20'0 0.0
2017-Oct-02 02:31N 39°51' W 075°20'0 0.0
2017-Oct-02 02:00N 39°51' W 075°20'0 0.0
2017-Oct-02 01:31N 39°51' W 075°20'0 0.0
2017-Oct-02 01:01N 39°51' W 075°20'0 0.0
2017-Oct-02 00:31N 39°51' W 075°20'0 0.0
2017-Oct-02 00:00N 39°51' W 075°20'0 0.0
2017-Oct-01 23:31N 39°51' W 075°20'0 0.2
2017-Oct-01 23:01N 39°51' W 075°20'0 0.1
2017-Oct-01 22:30N 39°51' W 075°21'0 0.1
2017-Oct-01 22:00N 39°51' W 075°20'0 0.0
2017-Oct-01 21:30N 39°51' W 075°20'0 0.0
2017-Oct-01 21:00N 39°51' W 075°20'0 0.0
2017-Oct-01 20:30N 39°51' W 075°20'0 0.0
2017-Oct-01 20:00N 39°51' W 075°20'0 0.0
2017-Oct-01 19:30N 39°51' W 075°20'0 0.0
2017-Oct-01 19:00N 39°51' W 075°20'0 0.0
2017-Oct-01 18:30N 39°51' W 075°20'0 0.0
2017-Oct-01 18:00N 39°51' W 075°20'0 0.2
2017-Oct-01 17:30N 39°51' W 075°20'0 0.0
2017-Oct-01 17:01N 39°51' W 075°20'0 0.2
2017-Oct-01 16:30N 39°51' W 075°20'4 8.9
2017-Oct-01 16:01N 39°51' W 075°14'3 6.2
2017-Oct-01 15:30N 39°54' W 075°12'0 0.0
2017-Oct-01 15:00N 39°54' W 075°12'0 0.0
2017-Oct-01 14:30N 39°54' W 075°12'0 0.0
2017-Oct-01 14:00N 39°54' W 075°12'0 0.0
2017-Oct-01 13:31N 39°54' W 075°12'0 0.0
2017-Oct-01 13:00N 39°54' W 075°12'0 0.0
2017-Oct-01 12:30N 39°54' W 075°12'0 0.0
2017-Oct-01 12:00N 39°54' W 075°12'0 0.0
2017-Oct-01 11:30N 39°54' W 075°12'0 0.0
2017-Oct-01 11:00N 39°54' W 075°12'0 0.0
2017-Oct-01 10:30N 39°54' W 075°12'0 0.0
2017-Oct-01 10:00N 39°54' W 075°12'0 0.0
2017-Oct-01 09:30N 39°54' W 075°12'0 0.0
2017-Oct-01 09:00N 39°54' W 075°12'0 0.0
2017-Oct-01 08:30N 39°54' W 075°12'0 0.0
2017-Oct-01 08:00N 39°54' W 075°12'0 0.0
2017-Oct-01 07:30N 39°54' W 075°12'0 0.0
2017-Oct-01 07:00N 39°54' W 075°12'0 0.0
2017-Oct-01 06:30N 39°54' W 075°12'0 0.0
2017-Oct-01 06:00N 39°54' W 075°12'0 0.0
2017-Oct-01 05:30N 39°54' W 075°12'0 0.0
2017-Oct-01 05:00N 39°54' W 075°12'0 0.0
2017-Oct-01 04:30N 39°54' W 075°12'0 0.0
2017-Oct-01 04:00N 39°54' W 075°12'0 0.0
2017-Oct-01 03:30N 39°54' W 075°12'0 0.0
2017-Oct-01 03:00N 39°54' W 075°12'0 0.0
2017-Sep-30 02:00N 39°54' W 075°12'0 0.0
2017-Sep-30 01:30N 39°54' W 075°12'0 0.0
2017-Sep-30 01:00N 39°54' W 075°12'0 0.0
2017-Sep-30 00:30N 39°54' W 075°12'0 0.0
2017-Sep-30 00:00N 39°54' W 075°12'0 0.0
2017-Sep-29 23:30N 39°54' W 075°12'0 0.0
2017-Sep-29 23:00N 39°54' W 075°12'0 0.0
2017-Sep-29 22:30N 39°54' W 075°12'0 0.0
2017-Sep-29 22:01N 39°54' W 075°12'0 0.0
2017-Sep-29 21:30N 39°54' W 075°12'0 0.0
2017-Sep-29 21:00N 39°54' W 075°12'0 0.0
2017-Sep-29 20:30N 39°54' W 075°12'0 0.0
2017-Sep-29 20:00N 39°54' W 075°12'0 0.0
2017-Sep-29 19:30N 39°54' W 075°12'0 0.6
2017-Sep-29 19:00N 39°54' W 075°12'0 0.0
2017-Sep-29 18:30N 39°54' W 075°12'0 0.0
2017-Sep-29 18:01N 39°54' W 075°12'0 0.0
2017-Sep-29 17:30N 39°54' W 075°12'0 0.0
2017-Sep-29 17:00N 39°54' W 075°12'0 0.0
2017-Sep-29 16:30N 39°54' W 075°12'0 0.0
2017-Sep-29 16:00N 39°54' W 075°12'0 0.0
2017-Sep-29 15:30N 39°54' W 075°12'0 0.1
2017-Sep-29 15:00N 39°54' W 075°12'0 0.0
2017-Sep-29 14:30N 39°54' W 075°12'0 0.0
2017-Sep-29 14:01N 39°54' W 075°12'1 1.2
2017-Sep-29 13:30N 39°54' W 075°12'4 8.0
2017-Sep-29 13:00N 39°51' W 075°16'3 6.6
2017-Sep-29 12:30N 39°51' W 075°20'1 1.8
2017-Sep-29 12:00N 39°50' W 075°21'5 9.9
2017-Sep-29 11:31N 39°48' W 075°26'510.0
2017-Sep-29 11:00N 39°43' W 075°30'510.1
2017-Sep-29 10:30N 39°39' W 075°33'4 8.8
2017-Sep-29 10:01N 39°35' W 075°33'  

Dump ship's entire track history